Time;durP1;ratioP1;P1;durP2;ratioP2;P2;SDS_P1;SDS_P2;PMS_P1;PMS_P2;Temp;Humidity;BMP_temperature;BMP_pressure;BME280_temperature;BME280_humidity;BME280_pressure;Samples;Min_cycle;Max_cycle;Signal;HPM_P1;HPM_P2
2023/02/07 00:00:42;;;;;;;37.55;16.75;;;0.80;99.90;;;;;;5004398;28;20054;-75
2023/02/07 00:03:08;;;;;;;47.08;16.48;;;0.80;99.90;;;;;;5006054;28;20038;-75
2023/02/07 00:05:35;;;;;;;41.65;16.30;;;0.70;99.90;;;;;;5004502;28;20109;-76
2023/02/07 00:08:04;;;;;;;37.20;15.88;;;0.70;99.90;;;;;;5005823;28;20045;-75
2023/02/07 00:10:30;;;;;;;56.58;14.50;;;0.70;99.90;;;;;;5004349;28;20022;-75
2023/02/07 00:12:56;;;;;;;38.13;15.52;;;0.70;99.90;;;;;;5006230;28;20026;-76
2023/02/07 00:15:22;;;;;;;38.28;15.23;;;0.60;99.90;;;;;;5005568;28;20062;-75
2023/02/07 00:17:47;;;;;;;40.42;15.65;;;0.60;99.90;;;;;;5006267;28;20029;-75
2023/02/07 00:20:13;;;;;;;40.28;14.98;;;0.60;99.90;;;;;;5004436;28;20503;-76
2023/02/07 00:22:38;;;;;;;38.25;14.75;;;0.60;99.90;;;;;;5005733;28;20034;-75
2023/02/07 00:25:04;;;;;;;34.83;14.80;;;0.60;99.90;;;;;;5005541;28;20038;-75
2023/02/07 00:27:30;;;;;;;47.55;17.08;;;0.60;99.90;;;;;;5005519;28;20088;-76
2023/02/07 00:29:56;;;;;;;40.30;17.10;;;0.60;99.90;;;;;;5005410;28;20111;-76
2023/02/07 00:32:22;;;;;;;41.85;16.38;;;0.60;99.90;;;;;;5005410;28;20023;-77
2023/02/07 00:34:49;;;;;;;32.63;15.30;;;0.60;99.90;;;;;;5004155;28;20074;-75
2023/02/07 00:37:15;;;;;;;36.97;15.88;;;0.50;99.90;;;;;;5003383;28;20451;-75
2023/02/07 00:39:41;;;;;;;40.22;15.07;;;0.50;99.90;;;;;;4993871;28;20053;-75
2023/02/07 00:42:07;;;;;;;39.25;16.42;;;0.50;99.90;;;;;;4993662;28;20026;-75
2023/02/07 00:44:32;;;;;;;38.70;16.23;;;0.50;99.90;;;;;;4992362;28;20039;-76
2023/02/07 00:46:58;;;;;;;41.88;15.93;;;0.50;99.90;;;;;;4993760;28;20432;-76
2023/02/07 00:49:24;;;;;;;46.42;17.20;;;0.50;99.90;;;;;;4998675;28;20022;-77
2023/02/07 00:51:50;;;;;;;36.53;15.27;;;0.50;99.90;;;;;;4998219;28;20026;-77
2023/02/07 00:54:16;;;;;;;41.13;14.48;;;0.50;99.90;;;;;;4993800;28;20053;-76
2023/02/07 00:56:42;;;;;;;34.10;14.70;;;0.50;99.90;;;;;;4993156;28;20118;-76
2023/02/07 00:59:08;;;;;;;33.30;14.85;;;0.50;99.90;;;;;;4990669;28;20615;-76
2023/02/07 01:01:33;;;;;;;37.78;14.93;;;0.40;99.90;;;;;;4992440;28;20109;-75
2023/02/07 01:03:59;;;;;;;38.83;15.98;;;0.30;99.90;;;;;;4997216;28;20029;-76
2023/02/07 01:06:26;;;;;;;29.95;14.60;;;0.30;99.90;;;;;;4995009;28;20034;-76
2023/02/07 01:08:58;;;;;;;39.00;15.10;;;0.20;99.90;;;;;;4993266;28;20037;-77
2023/02/07 01:11:24;;;;;;;35.88;14.90;;;0.20;99.90;;;;;;4991182;28;20073;-77
2023/02/07 01:13:50;;;;;;;36.35;15.13;;;0.20;99.90;;;;;;4992704;28;20133;-76
2023/02/07 01:16:18;;;;;;;33.17;15.30;;;0.20;99.90;;;;;;4995886;28;20033;-75
2023/02/07 01:18:44;;;;;;;38.35;15.93;;;0.10;99.90;;;;;;4997138;28;20034;-76
2023/02/07 01:21:18;;;;;;;41.08;15.45;;;0.10;99.90;;;;;;4991663;28;20029;-76
2023/02/07 01:23:44;;;;;;;36.08;15.52;;;0.10;99.90;;;;;;4992450;28;20023;-76
2023/02/07 01:26:09;;;;;;;45.30;16.85;;;0.10;99.90;;;;;;4994258;28;20037;-76
2023/02/07 01:28:35;;;;;;;37.15;15.65;;;0.10;99.90;;;;;;4993282;28;20027;-76
2023/02/07 01:31:09;;;;;;;36.63;16.42;;;0.10;99.90;;;;;;4995053;28;20038;-76
2023/02/07 01:33:35;;;;;;;36.92;16.25;;;0.00;99.90;;;;;;4993610;28;20029;-77
2023/02/07 01:36:09;;;;;;;39.90;16.00;;;0.00;99.90;;;;;;4991150;28;20476;-77
2023/02/07 01:38:34;;;;;;;36.95;15.93;;;0.00;99.90;;;;;;4992753;28;20038;-77
2023/02/07 01:41:00;;;;;;;35.25;15.02;;;-0.10;99.90;;;;;;4999926;28;20041;-77
2023/02/07 01:43:26;;;;;;;43.92;16.05;;;0.00;99.90;;;;;;4990163;28;20097;-78
2023/02/07 01:45:52;;;;;;;38.13;15.85;;;0.00;99.90;;;;;;4992965;28;20034;-76
2023/02/07 01:48:34;;;;;;;37.67;16.40;;;0.00;99.90;;;;;;4991229;28;20031;-77
2023/02/07 01:51:03;;;;;;;38.47;15.82;;;0.00;99.90;;;;;;4995674;28;20035;-77
2023/02/07 01:53:31;;;;;;;41.03;17.02;;;0.00;99.90;;;;;;4993251;28;20050;-76
2023/02/07 01:56:02;;;;;;;37.63;17.02;;;0.00;99.90;;;;;;4992631;28;20053;-77
2023/02/07 01:58:28;;;;;;;41.53;17.48;;;0.00;99.90;;;;;;4993918;28;20070;-78
2023/02/07 02:00:54;;;;;;;46.70;17.48;;;0.00;99.90;;;;;;4992831;28;20047;-77
2023/02/07 02:03:19;;;;;;;46.75;17.85;;;0.00;99.90;;;;;;4991012;28;20026;-77
2023/02/07 02:05:48;;;;;;;47.30;19.15;;;-0.10;99.90;;;;;;5001169;28;20030;-77
2023/02/07 02:08:13;;;;;;;51.38;18.25;;;-0.10;99.90;;;;;;5019014;28;20025;-75
2023/02/07 02:10:50;;;;;;;47.53;18.58;;;-0.10;99.90;;;;;;5002889;28;20113;-76
2023/02/07 02:13:42;;;;;;;49.33;18.80;;;-0.10;99.90;;;;;;5019181;28;20025;-77
2023/02/07 02:16:41;;;;;;;44.30;18.08;;;-0.10;99.90;;;;;;5018607;28;20030;-76
2023/02/07 02:19:25;;;;;;;49.50;18.83;;;-0.10;99.90;;;;;;5003708;28;20121;-76
2023/02/07 02:21:57;;;;;;;40.38;18.10;;;-0.10;99.90;;;;;;5002388;28;20041;-76
2023/02/07 02:24:28;;;;;;;45.60;18.63;;;-0.20;99.90;;;;;;5003821;28;20030;-76
2023/02/07 02:27:04;;;;;;;43.08;17.73;;;-0.20;99.90;;;;;;5003723;28;20026;-77
2023/02/07 02:29:51;;;;;;;39.28;17.85;;;-0.20;99.90;;;;;;5003779;28;20089;-76
2023/02/07 02:32:36;;;;;;;42.97;19.13;;;-0.20;99.90;;;;;;5003783;28;20018;-77
2023/02/07 02:35:24;;;;;;;46.30;19.38;;;-0.30;99.90;;;;;;5001569;28;20019;-76
2023/02/07 02:37:57;;;;;;;42.47;18.15;;;-0.30;99.90;;;;;;5002644;28;20033;-76
2023/02/07 02:40:39;;;;;;;46.70;18.90;;;-0.30;99.90;;;;;;4999168;28;20035;-76
2023/02/07 02:43:32;;;;;;;39.75;17.90;;;-0.30;99.90;;;;;;4998968;28;20053;-77
2023/02/07 02:46:07;;;;;;;45.05;17.58;;;-0.30;99.90;;;;;;4983372;28;20043;-75
2023/02/07 02:48:34;;;;;;;47.97;17.25;;;-0.30;99.90;;;;;;4982913;28;20039;-77
2023/02/07 02:51:00;;;;;;;40.97;17.73;;;-0.40;99.90;;;;;;4982895;28;20026;-76
2023/02/07 02:53:26;;;;;;;41.67;18.25;;;-0.40;99.90;;;;;;4983260;28;20050;-78
2023/02/07 02:56:23;;;;;;;43.55;18.17;;;-0.40;99.90;;;;;;4983048;28;20119;-78
2023/02/07 02:59:10;;;;;;;46.72;19.40;;;-0.50;99.90;;;;;;4983658;28;20047;-77
2023/02/07 03:01:48;;;;;;;48.50;18.33;;;-0.50;99.90;;;;;;4985568;28;20042;-76
2023/02/07 03:04:27;;;;;;;49.83;19.23;;;-0.50;99.90;;;;;;4995686;28;20031;-76
2023/02/07 03:07:08;;;;;;;48.45;20.02;;;-0.50;99.90;;;;;;4996139;28;20073;-78
2023/02/07 03:09:59;;;;;;;46.70;20.15;;;-0.50;99.90;;;;;;4993375;28;20743;-76
2023/02/07 03:12:55;;;;;;;42.15;18.25;;;-0.50;99.90;;;;;;4987875;28;20027;-77
2023/02/07 03:15:45;;;;;;;44.03;18.42;;;-0.50;99.90;;;;;;4989380;28;20022;-76
2023/02/07 03:18:29;;;;;;;42.35;17.92;;;-0.50;99.90;;;;;;4993749;28;20039;-77
2023/02/07 03:21:03;;;;;;;46.55;18.10;;;-0.60;99.90;;;;;;4993257;28;20480;-76
2023/02/07 03:23:31;;;;;;;40.63;17.73;;;-0.60;99.90;;;;;;4996920;28;20049;-76
2023/02/07 03:26:00;;;;;;;43.92;18.35;;;-0.60;99.90;;;;;;4994735;28;20023;-77
2023/02/07 03:28:26;;;;;;;44.20;17.25;;;-0.60;99.90;;;;;;4995405;28;20031;-77
2023/02/07 03:30:54;;;;;;;43.58;18.48;;;-0.70;99.90;;;;;;4995104;28;20033;-78
2023/02/07 03:33:22;;;;;;;43.45;17.83;;;-0.80;99.90;;;;;;4995374;28;20053;-77
2023/02/07 03:36:10;;;;;;;39.47;16.52;;;-0.80;99.90;;;;;;4995665;28;20124;-76
2023/02/07 03:38:36;;;;;;;40.83;16.20;;;-0.80;99.90;;;;;;4995923;28;20037;-77
2023/02/07 03:41:22;;;;;;;41.28;17.90;;;-0.80;99.90;;;;;;5016266;28;20022;-76
2023/02/07 03:43:48;;;;;;;43.88;17.35;;;-0.80;99.90;;;;;;4979396;28;20030;-75
2023/02/07 03:46:14;;;;;;;40.97;18.20;;;-0.80;99.90;;;;;;4993976;28;20091;-76
2023/02/07 03:48:39;;;;;;;38.53;17.35;;;-0.80;99.90;;;;;;4995604;28;20050;-77
2023/02/07 03:51:05;;;;;;;36.88;16.95;;;-0.80;99.90;;;;;;4994204;28;20054;-77
2023/02/07 03:53:31;;;;;;;36.63;16.83;;;-0.90;99.90;;;;;;4995410;28;20038;-76
2023/02/07 03:55:56;;;;;;;39.58;16.98;;;-0.90;99.90;;;;;;4995313;28;20034;-76
2023/02/07 03:58:22;;;;;;;38.88;17.30;;;-0.90;99.90;;;;;;4993198;28;20258;-78
2023/02/07 04:00:48;;;;;;;45.20;16.40;;;-0.90;99.90;;;;;;4993614;28;20061;-76
2023/02/07 04:03:13;;;;;;;35.42;16.95;;;-1.00;99.90;;;;;;4994454;28;20032;-76
2023/02/07 04:05:39;;;;;;;43.65;17.23;;;-1.00;99.90;;;;;;4992341;28;20034;-78
2023/02/07 04:08:05;;;;;;;39.55;17.60;;;-1.00;99.90;;;;;;4997216;28;20042;-77
2023/02/07 04:10:31;;;;;;;44.03;16.60;;;-1.10;99.90;;;;;;5000726;28;20055;-77
2023/02/07 04:12:57;;;;;;;38.90;17.13;;;-1.10;99.90;;;;;;4992001;28;20029;-78
2023/02/07 04:15:22;;;;;;;36.80;16.13;;;-1.10;99.90;;;;;;4992746;28;20034;-78
2023/02/07 04:17:48;;;;;;;38.53;16.48;;;-1.20;99.90;;;;;;4997840;28;20046;-77
2023/02/07 04:20:14;;;;;;;39.42;16.17;;;-1.20;99.90;;;;;;4994785;28;20066;-76
2023/02/07 04:22:40;;;;;;;38.45;16.83;;;-1.20;99.90;;;;;;4993604;28;20023;-76
2023/02/07 04:25:05;;;;;;;35.22;16.17;;;-1.30;99.90;;;;;;4993597;28;20077;-76
2023/02/07 04:27:31;;;;;;;41.47;16.83;;;-1.30;99.90;;;;;;5000277;28;20026;-75
2023/02/07 04:29:57;;;;;;;36.80;15.98;;;-1.30;99.90;;;;;;4995918;28;20027;-76
2023/02/07 04:32:22;;;;;;;38.72;17.05;;;-1.30;99.90;;;;;;4998471;28;20031;-75
2023/02/07 04:34:48;;;;;;;40.58;17.63;;;-1.30;99.90;;;;;;5003416;28;20030;-74
2023/02/07 04:37:14;;;;;;;39.88;17.10;;;-1.40;99.90;;;;;;5020408;28;20034;-76
2023/02/07 04:39:40;;;;;;;38.17;15.95;;;-1.40;99.90;;;;;;5005140;28;20035;-75
2023/02/07 04:42:06;;;;;;;36.65;15.85;;;-1.50;99.90;;;;;;5003988;28;20041;-74
2023/02/07 04:44:32;;;;;;;38.83;17.27;;;-1.50;99.90;;;;;;5003997;28;20181;-76
2023/02/07 04:46:58;;;;;;;41.78;17.88;;;-1.50;99.90;;;;;;5019956;28;20081;-77
2023/02/07 04:49:23;;;;;;;39.25;17.08;;;-1.50;99.90;;;;;;5020120;28;20399;-77
2023/02/07 04:51:49;;;;;;;41.22;17.42;;;-1.40;99.90;;;;;;5005745;28;20030;-75
2023/02/07 04:54:15;;;;;;;37.10;16.45;;;-1.40;99.90;;;;;;5020120;28;20094;-76
2023/02/07 04:56:40;;;;;;;40.00;17.73;;;-1.40;99.90;;;;;;5003017;28;20034;-75
2023/02/07 04:59:06;;;;;;;36.88;16.20;;;-1.40;99.90;;;;;;5003460;28;20046;-76
2023/02/07 05:01:32;;;;;;;49.08;16.40;;;-1.50;99.90;;;;;;5003569;28;20057;-75
2023/02/07 05:03:58;;;;;;;36.90;16.73;;;-1.50;99.90;;;;;;5005040;28;20042;-75
2023/02/07 05:06:23;;;;;;;40.60;17.33;;;-1.50;99.90;;;;;;5019279;28;20022;-75
2023/02/07 05:08:49;;;;;;;43.15;18.20;;;-1.40;99.90;;;;;;5003485;28;20415;-77
2023/02/07 05:11:15;;;;;;;40.92;18.25;;;-1.40;99.90;;;;;;5004602;28;20030;-75
2023/02/07 05:13:41;;;;;;;45.38;20.30;;;-1.50;99.90;;;;;;5003549;28;20038;-76
2023/02/07 05:16:06;;;;;;;49.60;20.40;;;-1.50;99.90;;;;;;5004753;28;20034;-75
2023/02/07 05:18:32;;;;;;;48.70;20.17;;;-1.50;99.90;;;;;;5004877;28;20025;-77
2023/02/07 05:20:58;;;;;;;49.70;20.52;;;-1.50;99.90;;;;;;5004646;28;20053;-75
2023/02/07 05:23:24;;;;;;;50.40;19.17;;;-1.50;99.90;;;;;;5004920;28;20042;-75
2023/02/07 05:25:49;;;;;;;47.65;20.27;;;-1.50;99.90;;;;;;5003483;28;20026;-75
2023/02/07 05:28:15;;;;;;;43.25;19.83;;;-1.60;99.90;;;;;;5003302;28;20030;-77
2023/02/07 05:30:41;;;;;;;49.35;19.52;;;-1.60;99.90;;;;;;5003348;28;20018;-77
2023/02/07 05:33:07;;;;;;;46.75;19.58;;;-1.60;99.90;;;;;;5003216;28;20053;-77
2023/02/07 05:35:35;;;;;;;45.97;19.38;;;-1.70;99.90;;;;;;5004396;28;20113;-76
2023/02/07 05:38:03;;;;;;;42.83;19.02;;;-1.70;99.90;;;;;;5002788;28;20464;-75
2023/02/07 05:40:29;;;;;;;45.90;19.83;;;-1.70;99.90;;;;;;5003174;28;20093;-74
2023/02/07 05:42:55;;;;;;;42.60;19.17;;;-1.70;99.90;;;;;;5003201;28;20030;-77
2023/02/07 05:45:21;;;;;;;47.15;19.75;;;-1.80;99.90;;;;;;5000340;28;20036;-75
2023/02/07 05:47:46;;;;;;;40.90;19.05;;;-1.80;99.90;;;;;;4998337;28;20435;-75
2023/02/07 05:50:12;;;;;;;44.85;18.90;;;-1.80;99.90;;;;;;5017611;28;20030;-76
2023/02/07 05:52:38;;;;;;;45.38;18.75;;;-1.80;99.90;;;;;;5018499;28;20090;-77
2023/02/07 05:55:04;;;;;;;42.95;19.10;;;-1.80;99.90;;;;;;5018416;28;20034;-76
2023/02/07 05:57:30;;;;;;;40.10;18.23;;;-1.80;99.90;;;;;;5001785;28;20120;-75
2023/02/07 05:59:55;;;;;;;46.55;19.05;;;-1.80;99.90;;;;;;5003082;28;20046;-76
2023/02/07 06:02:21;;;;;;;43.47;17.88;;;-1.80;99.90;;;;;;5018508;28;20104;-76
2023/02/07 06:04:47;;;;;;;40.85;17.58;;;-1.80;99.90;;;;;;5018329;28;20061;-75
2023/02/07 06:07:12;;;;;;;55.22;25.13;;;-1.80;99.90;;;;;;5002112;28;20076;-75
2023/02/07 06:09:38;;;;;;;51.92;23.45;;;-1.80;99.90;;;;;;5012614;28;20035;-75
2023/02/07 06:12:04;;;;;;;45.45;21.05;;;-1.80;99.90;;;;;;5004520;28;20081;-75
2023/02/07 06:14:29;;;;;;;53.55;20.58;;;-1.90;99.90;;;;;;5017946;28;20037;-75
2023/02/07 06:16:55;;;;;;;45.58;18.40;;;-1.90;99.90;;;;;;5002600;28;20117;-74
2023/02/07 06:19:20;;;;;;;40.08;18.77;;;-1.90;99.90;;;;;;5002540;28;20047;-76
2023/02/07 06:21:46;;;;;;;45.85;17.67;;;-1.90;99.90;;;;;;5004314;28;20023;-76
2023/02/07 06:24:11;;;;;;;44.63;18.23;;;-1.90;99.90;;;;;;5015713;28;20027;-74
2023/02/07 06:26:37;;;;;;;47.45;19.05;;;-1.90;99.90;;;;;;5003528;28;20073;-75
2023/02/07 06:29:03;;;;;;;45.85;19.10;;;-1.90;99.90;;;;;;5002123;28;20045;-75
2023/02/07 06:31:28;;;;;;;42.17;18.48;;;-2.00;99.90;;;;;;5002101;28;20093;-75
2023/02/07 06:33:54;;;;;;;43.10;19.08;;;-2.00;99.90;;;;;;5002215;28;20037;-74
2023/02/07 06:36:20;;;;;;;45.95;18.75;;;-2.00;99.90;;;;;;5001595;28;20014;-75
2023/02/07 06:38:46;;;;;;;43.78;18.02;;;-2.00;99.90;;;;;;5002246;28;20030;-75
2023/02/07 06:41:11;;;;;;;49.25;19.60;;;-2.00;99.90;;;;;;5002600;28;20407;-75
2023/02/07 06:43:37;;;;;;;42.70;18.65;;;-1.90;99.90;;;;;;5002381;28;20023;-75
2023/02/07 06:46:03;;;;;;;47.00;19.23;;;-1.90;99.90;;;;;;5003554;28;20039;-74
2023/02/07 06:48:29;;;;;;;46.25;19.88;;;-2.00;99.90;;;;;;5001339;28;20022;-75
2023/02/07 06:50:55;;;;;;;47.35;19.48;;;-2.00;99.90;;;;;;5001962;28;20543;-75
2023/02/07 06:53:21;;;;;;;48.67;19.75;;;-2.00;99.90;;;;;;5002870;28;20046;-75
2023/02/07 06:55:46;;;;;;;48.90;19.88;;;-2.00;99.90;;;;;;5002633;28;21005;-78
2023/02/07 06:58:12;;;;;;;45.70;19.63;;;-2.10;99.90;;;;;;5005976;28;20058;-75
2023/02/07 07:00:38;;;;;;;50.70;19.55;;;-2.10;99.90;;;;;;5005666;28;20121;-75
2023/02/07 07:03:03;;;;;;;52.47;21.27;;;-2.10;99.90;;;;;;5005898;28;20026;-75
2023/02/07 07:05:30;;;;;;;47.22;19.90;;;-2.10;99.90;;;;;;5007271;28;20066;-75
2023/02/07 07:07:56;;;;;;;50.60;20.75;;;-2.10;99.90;;;;;;5005647;28;20049;-74
2023/02/07 07:10:21;;;;;;;44.67;19.02;;;-2.10;99.90;;;;;;5006050;28;20077;-75
2023/02/07 07:12:47;;;;;;;50.17;20.17;;;-2.10;99.90;;;;;;5006152;28;20034;-74
2023/02/07 07:15:13;;;;;;;49.00;19.92;;;-2.10;99.90;;;;;;5005832;28;20065;-75
2023/02/07 07:17:39;;;;;;;48.05;20.52;;;-2.10;99.90;;;;;;5005726;28;20038;-75
2023/02/07 07:20:06;;;;;;;47.22;19.48;;;-2.10;99.90;;;;;;5005503;28;20062;-75
2023/02/07 07:22:32;;;;;;;46.17;20.17;;;-2.10;99.90;;;;;;5005512;28;20546;-76
2023/02/07 07:24:57;;;;;;;44.35;19.75;;;-2.10;99.90;;;;;;5001635;28;20089;-75
2023/02/07 07:27:23;;;;;;;50.70;20.75;;;-2.00;99.90;;;;;;5004237;28;20101;-75
2023/02/07 07:29:49;;;;;;;50.65;20.63;;;-2.00;99.90;;;;;;5006720;28;20049;-77
2023/02/07 07:32:15;;;;;;;50.63;22.33;;;-2.00;99.90;;;;;;5005601;28;20032;-75
2023/02/07 07:34:41;;;;;;;50.47;20.05;;;-1.90;99.90;;;;;;5007194;28;20036;-74
2023/02/07 07:37:07;;;;;;;45.45;19.42;;;-1.80;99.90;;;;;;5005193;28;20054;-76
2023/02/07 07:39:33;;;;;;;46.78;20.23;;;-1.70;99.90;;;;;;5004744;28;20041;-74
2023/02/07 07:41:58;;;;;;;38.50;18.38;;;-1.50;99.90;;;;;;5004980;28;20034;-75
2023/02/07 07:44:24;;;;;;;45.53;19.10;;;-1.40;99.90;;;;;;5006292;28;20022;-75
2023/02/07 07:46:49;;;;;;;43.53;19.33;;;-1.20;99.90;;;;;;5006869;28;20077;-77
2023/02/07 07:49:15;;;;;;;38.72;18.20;;;-1.10;99.90;;;;;;5021796;28;20042;-74
2023/02/07 07:51:41;;;;;;;38.80;17.25;;;-0.80;99.90;;;;;;5005242;28;20030;-75
2023/02/07 07:54:06;;;;;;;39.70;19.67;;;-0.60;99.90;;;;;;5004828;28;20125;-74
2023/02/07 07:56:34;;;;;;;42.35;18.73;;;-0.30;99.90;;;;;;5004397;28;20071;-73
2023/02/07 07:59:00;;;;;;;40.75;18.42;;;-0.10;99.90;;;;;;5006233;28;20049;-74
2023/02/07 08:01:26;;;;;;;40.30;18.08;;;0.10;99.90;;;;;;5005236;28;20022;-76
2023/02/07 08:03:52;;;;;;;43.28;18.38;;;0.20;99.90;;;;;;5007033;28;20064;-75
2023/02/07 08:06:17;;;;;;;36.55;17.13;;;0.40;99.90;;;;;;5005410;28;20050;-74
2023/02/07 08:08:43;;;;;;;37.10;17.55;;;0.40;99.90;;;;;;5006618;28;20061;-74
2023/02/07 08:11:10;;;;;;;41.90;18.42;;;0.50;99.90;;;;;;5005121;28;20044;-74
2023/02/07 08:13:37;;;;;;;46.00;19.77;;;0.60;99.90;;;;;;5006229;28;20030;-75
2023/02/07 08:16:04;;;;;;;39.85;19.58;;;0.80;99.90;;;;;;5006296;28;20018;-74
2023/02/07 08:18:29;;;;;;;39.95;17.65;;;0.90;99.90;;;;;;5006238;28;20023;-74
2023/02/07 08:20:55;;;;;;;49.08;22.08;;;1.10;99.90;;;;;;5005891;28;20081;-75
2023/02/07 08:23:21;;;;;;;42.55;21.00;;;1.30;99.90;;;;;;5004722;28;20026;-74
2023/02/07 08:25:48;;;;;;;36.72;18.60;;;1.50;99.90;;;;;;5004675;28;20124;-74
2023/02/07 08:28:14;;;;;;;41.17;19.00;;;1.80;99.90;;;;;;5005148;28;20034;-75
2023/02/07 08:30:40;;;;;;;35.05;17.60;;;2.10;99.90;;;;;;5004221;28;20038;-75
2023/02/07 08:33:06;;;;;;;35.20;17.65;;;2.20;99.90;;;;;;5007265;28;20053;-73
2023/02/07 08:35:32;;;;;;;33.50;16.92;;;2.20;99.90;;;;;;4995831;28;20023;-74
2023/02/07 08:37:57;;;;;;;36.72;18.17;;;2.40;99.90;;;;;;4986694;28;20026;-75
2023/02/07 08:40:24;;;;;;;32.30;17.42;;;2.60;99.90;;;;;;5001181;28;20057;-74
2023/02/07 08:42:50;;;;;;;35.60;17.45;;;2.80;99.90;;;;;;5004424;28;20030;-75
2023/02/07 08:45:16;;;;;;;34.83;17.52;;;3.10;99.90;;;;;;5003979;28;20101;-74
2023/02/07 08:47:43;;;;;;;35.70;18.13;;;3.30;99.90;;;;;;5005234;28;20077;-74
2023/02/07 08:50:10;;;;;;;34.03;17.27;;;3.40;99.90;;;;;;5000194;28;20053;-74
2023/02/07 08:52:35;;;;;;;36.03;17.40;;;3.40;99.90;;;;;;4999619;28;20037;-73
2023/02/07 08:55:01;;;;;;;31.60;15.48;;;3.50;99.90;;;;;;5008449;28;20023;-75
2023/02/07 08:57:27;;;;;;;29.42;14.45;;;3.60;99.90;;;;;;5000606;28;20439;-74
2023/02/07 08:59:53;;;;;;;35.47;18.20;;;3.50;99.90;;;;;;5001044;28;20027;-75
2023/02/07 09:02:19;;;;;;;37.38;17.50;;;3.30;99.90;;;;;;4999702;28;20094;-74
2023/02/07 09:04:44;;;;;;;35.08;17.23;;;3.30;99.90;;;;;;4985453;28;20483;-74
2023/02/07 09:07:11;;;;;;;38.05;17.65;;;3.40;99.90;;;;;;4985848;28;20062;-76
2023/02/07 09:09:37;;;;;;;34.13;18.08;;;3.50;99.90;;;;;;4985487;28;20038;-75
2023/02/07 09:12:03;;;;;;;38.25;17.13;;;3.60;99.90;;;;;;4986156;28;20027;-74
2023/02/07 09:14:29;;;;;;;35.33;18.75;;;3.70;99.90;;;;;;4997104;28;20034;-74
2023/02/07 09:16:55;;;;;;;34.72;18.35;;;3.70;99.90;;;;;;4995060;28;20054;-74
2023/02/07 09:19:21;;;;;;;34.42;17.20;;;3.90;99.90;;;;;;4999577;28;20027;-76
2023/02/07 09:21:46;;;;;;;38.83;18.48;;;3.90;99.90;;;;;;5015088;28;20084;-74
2023/02/07 09:24:12;;;;;;;37.03;18.02;;;4.10;99.90;;;;;;5004109;28;20030;-74
2023/02/07 09:26:38;;;;;;;36.90;18.63;;;4.30;99.90;;;;;;5010917;28;20022;-73
2023/02/07 09:29:05;;;;;;;35.30;17.92;;;4.40;99.90;;;;;;4995628;28;20030;-74
2023/02/07 09:31:32;;;;;;;35.28;18.58;;;4.30;99.90;;;;;;5001045;28;20030;-74
2023/02/07 09:33:58;;;;;;;36.10;18.70;;;4.20;99.90;;;;;;4997642;28;20443;-75
2023/02/07 09:36:26;;;;;;;36.33;16.75;;;4.10;99.90;;;;;;4996060;28;20418;-74
2023/02/07 09:38:54;;;;;;;36.00;17.65;;;4.10;99.90;;;;;;4994912;28;20082;-73
2023/02/07 09:41:43;;;;;;;38.65;18.95;;;3.90;99.90;;;;;;4998823;28;20037;-76
2023/02/07 09:44:17;;;;;;;41.22;19.95;;;3.70;99.90;;;;;;4997322;28;20030;-73
2023/02/07 09:47:02;;;;;;;44.00;21.80;;;3.40;99.90;;;;;;5003389;28;20065;-74
2023/02/07 09:49:34;;;;;;;43.80;21.48;;;3.30;99.90;;;;;;4999103;28;20069;-73
2023/02/07 09:52:02;;;;;;;42.40;19.85;;;3.20;99.90;;;;;;4995759;28;20109;-75
2023/02/07 09:54:38;;;;;;;45.70;19.83;;;3.20;99.90;;;;;;4996950;28;20360;-72
2023/02/07 09:57:11;;;;;;;39.88;18.48;;;3.40;99.90;;;;;;4994177;28;20081;-72
2023/02/07 10:00:01;;;;;;;43.72;21.88;;;3.70;99.90;;;;;;4988090;28;20142;-74
2023/02/07 10:03:03;;;;;;;42.80;20.70;;;4.00;99.90;;;;;;5005181;28;20046;-73
2023/02/07 10:05:33;;;;;;;37.40;19.85;;;4.40;99.90;;;;;;4992051;28;20392;-72
2023/02/07 10:07:59;;;;;;;40.78;19.67;;;4.90;99.90;;;;;;4990836;28;20116;-74
2023/02/07 10:10:36;;;;;;;35.90;17.75;;;5.20;99.90;;;;;;4981195;28;20075;-74
2023/02/07 10:13:07;;;;;;;36.85;19.38;;;5.60;99.90;;;;;;4999069;28;20035;-73
2023/02/07 10:16:06;;;;;;;37.50;19.10;;;5.60;99.90;;;;;;4997367;28;20081;-73
2023/02/07 10:18:51;;;;;;;42.58;19.50;;;5.50;99.90;;;;;;5002651;28;20407;-73
2023/02/07 10:21:18;;;;;;;;;;;5.40;99.90;;;;;;4988650;28;20039;-73
2023/02/07 10:24:02;;;;;;;37.10;19.52;;;5.40;99.90;;;;;;5003344;28;19932;-74
2023/02/07 10:26:45;;;;;;;39.28;19.83;;;5.50;99.90;;;;;;4993068;28;20026;-75
2023/02/07 10:29:17;;;;;;;37.53;20.85;;;5.80;99.90;;;;;;5002035;28;20050;-74
2023/02/07 10:31:46;;;;;;;39.55;20.38;;;6.10;99.90;;;;;;4983749;28;20452;-75
2023/02/07 10:34:16;;;;;;;42.13;19.15;;;6.40;99.90;;;;;;5006013;28;20027;-74
2023/02/07 10:36:48;;;;;;;31.75;18.55;;;6.30;99.90;;;;;;5006596;28;20058;-74
2023/02/07 10:39:36;;;;;;;34.17;16.85;;;6.40;99.90;;;;;;5008517;28;20084;-73
2023/02/07 10:42:01;;;;;;;38.83;20.33;;;6.60;99.90;;;;;;5008400;28;20037;-73
2023/02/07 10:44:28;;;;;;;34.28;17.00;;;6.80;99.90;;;;;;5008575;28;20023;-75
2023/02/07 10:47:02;;;;;;;34.70;17.75;;;6.90;99.90;;;;;;5008373;28;20030;-74
2023/02/07 10:49:34;;;;;;;37.42;17.80;;;7.10;99.90;;;;;;5007452;28;20089;-74
2023/02/07 10:52:21;;;;;;;33.05;18.02;;;7.20;99.90;;;;;;5007494;28;20022;-75
2023/02/07 10:55:01;;;;;;;33.72;16.77;;;7.40;99.90;;;;;;5007265;28;20030;-74
2023/02/07 10:57:28;;;;;;;34.80;18.95;;;7.70;99.90;;;;;;5022219;28;20476;-74
2023/02/07 11:00:12;;;;;;;35.03;19.10;;;7.70;99.90;;;;;;5005882;28;20030;-75
2023/02/07 11:03:05;;;;;;;34.15;17.40;;;7.80;99.90;;;;;;5005781;28;20026;-74
2023/02/07 11:05:37;;;;;;;34.78;18.98;;;7.70;99.90;;;;;;5005991;28;20038;-74
2023/02/07 11:08:15;;;;;;;33.08;17.35;;;7.60;99.90;;;;;;5007184;28;20030;-74
2023/02/07 11:10:44;;;;;;;33.38;17.63;;;7.80;99.90;;;;;;5006851;28;20097;-73
2023/02/07 11:13:16;;;;;;;33.05;17.67;;;8.10;99.90;;;;;;5005543;28;20026;-73
2023/02/07 11:16:02;;;;;;;33.65;16.73;;;8.20;99.90;;;;;;5006874;28;20030;-72
2023/02/07 11:19:01;;;;;;;32.67;17.25;;;8.20;99.90;;;;;;5005444;28;20053;-74
2023/02/07 11:21:27;;;;;;;31.20;17.92;;;8.10;99.90;;;;;;5006591;28;20506;-73
2023/02/07 11:23:56;;;;;;;31.05;17.35;;;8.30;99.90;;;;;;5006956;28;20031;-72
2023/02/07 11:26:23;;;;;;;31.92;16.92;;;8.80;99.90;;;;;;5005253;28;20018;-74
2023/02/07 11:29:00;;;;;;;32.13;16.60;;;9.20;99.90;;;;;;5005800;28;20023;-74
2023/02/07 11:31:30;;;;;;;33.17;17.08;;;9.40;99.90;;;;;;5005028;28;20064;-71
2023/02/07 11:34:08;;;;;;;32.25;17.92;;;9.60;99.90;;;;;;5006664;28;20030;-74
2023/02/07 11:36:34;;;;;;;33.22;16.13;;;9.70;99.90;;;;;;5020532;28;20037;-73
2023/02/07 11:39:00;;;;;;;27.50;15.70;;;9.70;99.90;;;;;;5006102;28;20030;-73
2023/02/07 11:41:29;;;;;;;27.70;15.75;;;9.80;99.90;;;;;;5006122;28;20057;-73
2023/02/07 11:44:16;;;;;;;27.05;15.32;;;10.10;99.90;;;;;;5004567;28;20034;-73
2023/02/07 11:46:46;;;;;;;25.35;14.75;;;10.40;99.90;;;;;;4997706;28;20039;-71
2023/02/07 11:49:40;;;;;;;24.40;15.02;;;10.70;99.90;;;;;;5014447;28;20427;-73
2023/02/07 11:52:07;;;;;;;25.10;14.75;;;10.60;99.90;;;;;;5010620;28;20500;-73
2023/02/07 11:54:33;;;;;;;26.40;14.13;;;10.90;99.90;;;;;;4998685;28;20076;-72
2023/02/07 11:57:12;;;;;;;22.20;13.35;;;11.30;99.90;;;;;;4997439;28;20136;-75
2023/02/07 11:59:47;;;;;;;25.15;14.65;;;11.30;99.90;;;;;;5018093;28;20046;-73
2023/02/07 12:02:21;;;;;;;22.52;14.15;;;11.60;99.90;;;;;;5003164;28;20034;-72
2023/02/07 12:04:47;;;;;;;23.42;14.38;;;12.00;99.90;;;;;;5005132;28;20105;-72
2023/02/07 12:07:25;;;;;;;22.02;13.80;;;12.30;99.90;;;;;;5005208;28;20109;-74
2023/02/07 12:10:09;;;;;;;24.25;13.27;;;12.40;99.90;;;;;;5005325;28;20034;-74
2023/02/07 12:13:12;;;;;;;23.40;14.82;;;12.50;99.90;;;;;;5020988;28;20068;-72
2023/02/07 12:15:52;;;;;;;21.55;13.57;;;12.50;99.90;;;;;;5005523;28;20030;-74
2023/02/07 12:18:18;;;;;;;20.05;12.82;;;12.60;99.90;;;;;;5005861;28;20026;-72
2023/02/07 12:20:59;;;;;;;19.65;12.32;;;12.60;99.90;;;;;;5005000;28;20026;-74
2023/02/07 12:23:28;;;;;;;22.30;12.90;;;12.30;99.90;;;;;;5005555;28;20052;-75
2023/02/07 12:26:02;;;;;;;27.23;14.55;;;12.20;99.90;;;;;;5000727;28;20076;-74
2023/02/07 12:29:08;;;;;;;21.73;12.65;;;12.40;99.90;;;;;;5015932;28;20022;-74
2023/02/07 12:31:49;;;;;;;22.90;13.40;;;12.70;99.90;;;;;;5014764;28;20038;-73
2023/02/07 12:34:34;;;;;;;20.50;13.20;;;12.70;99.90;;;;;;5020572;28;20076;-73
2023/02/07 12:37:12;;;;;;;20.80;13.00;;;12.80;99.90;;;;;;5000640;28;20432;-73
2023/02/07 12:39:51;;;;;;;18.42;12.38;;;13.10;99.90;;;;;;4986109;28;20037;-73
2023/02/07 12:42:31;;;;;;;20.27;12.95;;;13.40;99.90;;;;;;4985946;28;20093;-74
2023/02/07 12:45:00;;;;;;;18.77;11.57;;;13.70;99.90;;;;;;5000479;28;20393;-73